Time;durP1;ratioP1;P1;durP2;ratioP2;P2;SDS_P1;SDS_P2;PMS_P1;PMS_P2;Temp;Humidity;BMP_temperature;BMP_pressure;BME280_temperature;BME280_humidity;BME280_pressure;Samples;Min_cycle;Max_cycle;Signal;HPM_P1;HPM_P2
2021/08/20 00:01:52;;;;;;;4.95;1.73;;;18.30;99.90;;;;;;5053751;28;20021;-77
2021/08/20 00:04:18;;;;;;;2.55;1.83;;;18.40;99.90;;;;;;5052314;28;20055;-76
2021/08/20 00:06:43;;;;;;;2.70;1.58;;;18.30;99.90;;;;;;5053441;28;20481;-77
2021/08/20 00:09:09;;;;;;;2.20;1.77;;;18.30;99.90;;;;;;5054289;28;20416;-76
2021/08/20 00:11:37;;;;;;;2.42;1.73;;;18.20;99.90;;;;;;5052312;28;20385;-76
2021/08/20 00:14:04;;;;;;;4.70;2.10;;;18.20;99.90;;;;;;5053711;28;20079;-76
2021/08/20 00:16:30;;;;;;;2.40;1.30;;;18.20;99.90;;;;;;5051984;28;20048;-76
2021/08/20 00:18:55;;;;;;;1.85;1.75;;;18.10;99.90;;;;;;5053472;28;20465;-76
2021/08/20 00:21:21;;;;;;;3.42;1.60;;;18.20;99.90;;;;;;5053928;28;20081;-76
2021/08/20 00:23:47;;;;;;;3.33;1.58;;;18.20;99.90;;;;;;5053357;28;20396;-77
2021/08/20 00:26:12;;;;;;;2.55;1.60;;;18.20;99.90;;;;;;5053116;28;20053;-77
2021/08/20 00:28:38;;;;;;;2.55;1.67;;;18.20;99.90;;;;;;5053232;28;20027;-77
2021/08/20 00:31:04;;;;;;;5.82;1.60;;;18.20;99.90;;;;;;5051718;28;20048;-76
2021/08/20 00:33:32;;;;;;;2.78;1.42;;;18.20;99.90;;;;;;5076392;28;20092;-76
2021/08/20 00:35:57;;;;;;;3.70;2.20;;;18.20;99.90;;;;;;5091174;28;20027;-77
2021/08/20 00:38:23;;;;;;;3.50;1.23;;;18.30;99.90;;;;;;5093146;28;20024;-77
2021/08/20 00:40:48;;;;;;;5.07;1.50;;;18.20;99.90;;;;;;5093433;28;20153;-76
2021/08/20 00:43:14;;;;;;;3.53;1.52;;;18.20;99.90;;;;;;5079385;28;20453;-77
2021/08/20 00:45:55;;;;;;;3.58;1.60;;;18.20;99.90;;;;;;5073335;28;20567;-76
2021/08/20 00:48:21;;;;;;;6.57;1.83;;;18.20;99.90;;;;;;5072984;28;20065;-76
2021/08/20 00:50:47;;;;;;;2.15;1.90;;;18.20;99.90;;;;;;5072861;28;20548;-76
2021/08/20 00:53:13;;;;;;;2.05;1.27;;;18.20;99.90;;;;;;5070342;28;20056;-76
2021/08/20 00:55:41;;;;;;;2.72;1.50;;;18.20;99.90;;;;;;5074241;28;20055;-76
2021/08/20 00:58:06;;;;;;;4.32;1.65;;;18.20;99.90;;;;;;5087907;28;20352;-77
2021/08/20 01:00:32;;;;;;;1.60;1.50;;;18.10;99.90;;;;;;5088964;28;20024;-78
2021/08/20 01:02:58;;;;;;;2.72;1.60;;;18.10;99.90;;;;;;5088253;28;20025;-77
2021/08/20 01:05:23;;;;;;;1.95;1.40;;;18.10;99.90;;;;;;5071236;28;20029;-75
2021/08/20 01:07:49;;;;;;;2.83;1.42;;;18.10;99.90;;;;;;5072235;28;20107;-76
2021/08/20 01:10:15;;;;;;;3.38;1.50;;;18.10;99.90;;;;;;5071267;28;20036;-77
2021/08/20 01:12:41;;;;;;;3.92;1.92;;;18.10;99.90;;;;;;5072293;28;20070;-76
2021/08/20 01:15:07;;;;;;;2.30;1.60;;;18.10;99.90;;;;;;5068112;28;20021;-77
2021/08/20 01:17:33;;;;;;;1.92;1.60;;;18.00;99.90;;;;;;5050726;28;20055;-76
2021/08/20 01:20:00;;;;;;;3.63;1.48;;;18.00;99.90;;;;;;5051087;28;20108;-76
2021/08/20 01:22:26;;;;;;;3.63;1.88;;;17.90;99.90;;;;;;5052464;28;20067;-76
2021/08/20 01:25:02;;;;;;;3.13;1.45;;;17.90;99.90;;;;;;5071686;28;20025;-75
2021/08/20 01:27:28;;;;;;;5.38;1.48;;;18.00;99.90;;;;;;5075362;28;20107;-76
2021/08/20 01:29:54;;;;;;;2.42;1.40;;;18.00;99.90;;;;;;5075040;28;20480;-77
2021/08/20 01:32:19;;;;;;;2.95;2.00;;;17.90;99.90;;;;;;5073048;28;20027;-75
2021/08/20 01:34:45;;;;;;;2.63;1.85;;;18.00;99.90;;;;;;5072266;28;20496;-76
2021/08/20 01:37:10;;;;;;;2.92;1.77;;;18.00;99.90;;;;;;5074759;28;20028;-76
2021/08/20 01:39:36;;;;;;;2.40;1.33;;;18.00;99.90;;;;;;5072305;28;20044;-77
2021/08/20 01:42:02;;;;;;;2.42;1.85;;;18.00;99.90;;;;;;5071934;28;20484;-76
2021/08/20 01:44:27;;;;;;;2.17;1.67;;;18.00;99.90;;;;;;5072084;28;20024;-75
2021/08/20 01:46:53;;;;;;;2.03;1.52;;;18.10;99.90;;;;;;5070724;28;20025;-76
2021/08/20 01:49:18;;;;;;;2.58;1.80;;;18.00;99.90;;;;;;5070602;28;20107;-76
2021/08/20 01:51:44;;;;;;;2.45;2.25;;;18.00;99.90;;;;;;5068366;28;20091;-76
2021/08/20 01:54:09;;;;;;;3.58;1.80;;;18.00;99.90;;;;;;5082224;28;20545;-76
2021/08/20 01:56:36;;;;;;;2.00;1.80;;;18.00;99.90;;;;;;5087984;28;20020;-77
2021/08/20 01:59:02;;;;;;;2.45;1.95;;;18.00;99.90;;;;;;5061349;28;20448;-76
2021/08/20 02:01:29;;;;;;;2.45;1.55;;;18.00;99.90;;;;;;5070671;28;20035;-76
2021/08/20 02:03:55;;;;;;;3.78;1.60;;;17.90;99.90;;;;;;5072188;28;20020;-76
2021/08/20 02:06:20;;;;;;;6.68;1.48;;;17.90;99.90;;;;;;5077262;28;20056;-76
2021/08/20 02:08:46;;;;;;;2.33;1.60;;;17.90;99.90;;;;;;5077213;28;20480;-76
2021/08/20 02:11:12;;;;;;;2.20;1.60;;;17.90;99.90;;;;;;5074713;28;20036;-75
2021/08/20 02:13:39;;;;;;;1.52;1.23;;;17.90;99.90;;;;;;5075640;28;20025;-76
2021/08/20 02:16:05;;;;;;;3.13;1.58;;;17.90;99.90;;;;;;5071370;28;20025;-76
2021/08/20 02:18:30;;;;;;;2.00;1.52;;;17.90;99.90;;;;;;5055417;28;20025;-76
2021/08/20 02:20:56;;;;;;;3.20;1.83;;;17.90;99.90;;;;;;5064230;28;20021;-76
2021/08/20 02:23:22;;;;;;;2.88;1.67;;;17.90;99.90;;;;;;5067101;28;20104;-76
2021/08/20 02:25:47;;;;;;;4.32;1.50;;;17.90;99.90;;;;;;5060919;28;20485;-76
2021/08/20 02:28:13;;;;;;;2.80;1.70;;;17.90;99.90;;;;;;5056234;28;20031;-76
2021/08/20 02:30:39;;;;;;;3.08;1.88;;;17.90;99.90;;;;;;5053914;28;20033;-77
2021/08/20 02:33:04;;;;;;;1.70;1.60;;;17.90;99.90;;;;;;5053932;28;20104;-76
2021/08/20 02:35:30;;;;;;;4.43;1.73;;;17.90;99.90;;;;;;5056081;28;20083;-77
2021/08/20 02:37:56;;;;;;;1.70;1.40;;;17.90;99.90;;;;;;5066325;28;20508;-77
2021/08/20 02:40:21;;;;;;;2.55;1.42;;;17.90;99.90;;;;;;5076447;28;20060;-75
2021/08/20 02:42:47;;;;;;;4.25;1.30;;;17.80;99.90;;;;;;5075777;28;20488;-78
2021/08/20 02:45:13;;;;;;;2.22;1.77;;;17.90;99.90;;;;;;5074884;28;20411;-77
2021/08/20 02:47:39;;;;;;;3.17;1.65;;;17.90;99.90;;;;;;5073964;28;20025;-76
2021/08/20 02:50:05;;;;;;;2.38;1.83;;;17.90;99.90;;;;;;5075108;28;20032;-76
2021/08/20 02:52:31;;;;;;;2.05;1.55;;;17.90;99.90;;;;;;5070066;28;20029;-76
2021/08/20 02:54:56;;;;;;;4.65;1.52;;;17.90;99.90;;;;;;5084665;28;20021;-78
2021/08/20 02:57:23;;;;;;;1.90;1.70;;;17.80;99.90;;;;;;5089374;28;20424;-76
2021/08/20 02:59:52;;;;;;;3.47;1.70;;;17.80;99.90;;;;;;5074568;28;20029;-76
2021/08/20 03:02:17;;;;;;;2.53;1.63;;;17.80;99.90;;;;;;5075132;28;20025;-76
2021/08/20 03:04:43;;;;;;;1.52;1.42;;;17.80;99.90;;;;;;5073490;28;20028;-76
2021/08/20 03:07:08;;;;;;;2.10;1.80;;;17.80;99.90;;;;;;5073469;28;20028;-77
2021/08/20 03:09:34;;;;;;;1.73;1.50;;;17.80;99.90;;;;;;5074602;28;20031;-77
2021/08/20 03:12:00;;;;;;;1.88;1.77;;;17.80;99.90;;;;;;5074500;28;20024;-76
2021/08/20 03:14:26;;;;;;;2.45;1.83;;;17.80;99.90;;;;;;5074633;28;20096;-77
2021/08/20 03:16:51;;;;;;;2.28;1.60;;;17.80;99.90;;;;;;5073151;28;20051;-76
2021/08/20 03:19:17;;;;;;;3.90;1.30;;;17.80;99.90;;;;;;5074834;28;20103;-77
2021/08/20 03:21:42;;;;;;;2.03;1.45;;;17.80;99.90;;;;;;5073177;28;20020;-76
2021/08/20 03:24:08;;;;;;;2.33;1.70;;;17.80;99.90;;;;;;5073267;28;20024;-77
2021/08/20 03:26:34;;;;;;;4.10;1.75;;;17.80;99.90;;;;;;5074226;28;20392;-77
2021/08/20 03:29:00;;;;;;;1.88;1.40;;;17.80;99.90;;;;;;5075715;28;20028;-77
2021/08/20 03:31:25;;;;;;;3.20;1.45;;;17.80;99.90;;;;;;5074177;28;20016;-76
2021/08/20 03:33:51;;;;;;;1.48;1.38;;;17.80;99.90;;;;;;5074378;28;20028;-78
2021/08/20 03:36:17;;;;;;;2.97;1.58;;;17.80;99.90;;;;;;5073156;28;20483;-76
2021/08/20 03:38:42;;;;;;;2.42;1.60;;;17.80;99.90;;;;;;5074007;28;20025;-77
2021/08/20 03:41:08;;;;;;;2.17;1.70;;;17.80;99.90;;;;;;5074170;28;20099;-77
2021/08/20 03:43:34;;;;;;;3.75;1.80;;;17.80;99.90;;;;;;5073981;28;20024;-76
2021/08/20 03:46:00;;;;;;;3.40;1.73;;;17.80;99.90;;;;;;5072746;28;20027;-75
2021/08/20 03:48:25;;;;;;;1.88;1.60;;;17.80;99.90;;;;;;5073228;28;20043;-76
2021/08/20 03:50:51;;;;;;;1.83;1.63;;;17.80;99.90;;;;;;5073433;28;20024;-77
2021/08/20 03:53:16;;;;;;;3.28;1.50;;;17.80;99.90;;;;;;5071645;28;20016;-76
2021/08/20 03:55:42;;;;;;;3.28;1.48;;;17.80;99.90;;;;;;5085587;28;20020;-76
2021/08/20 03:58:07;;;;;;;3.92;2.75;;;17.80;99.90;;;;;;5081339;28;20480;-79
2021/08/20 04:00:35;;;;;;;4.50;1.92;;;17.80;99.90;;;;;;5072569;28;20032;-76
2021/08/20 04:03:00;;;;;;;3.67;2.13;;;17.80;99.90;;;;;;5073525;28;20103;-76
2021/08/20 04:05:26;;;;;;;4.75;1.90;;;17.80;99.90;;;;;;5073478;28;20066;-76
2021/08/20 04:07:51;;;;;;;3.28;2.08;;;17.80;99.90;;;;;;5073505;28;20056;-76
2021/08/20 04:10:17;;;;;;;4.22;2.33;;;17.70;99.90;;;;;;5073583;28;20107;-76
2021/08/20 04:12:43;;;;;;;5.35;2.05;;;17.80;99.90;;;;;;5073396;28;20029;-76
2021/08/20 04:15:09;;;;;;;2.65;1.98;;;17.80;99.90;;;;;;5073397;28;20100;-75
2021/08/20 04:17:35;;;;;;;4.28;2.75;;;17.80;99.90;;;;;;5073431;28;20056;-76
2021/08/20 04:20:00;;;;;;;2.90;2.13;;;17.70;99.90;;;;;;5071991;28;20048;-77
2021/08/20 04:22:26;;;;;;;7.15;2.10;;;17.80;99.90;;;;;;5072176;28;20028;-78
2021/08/20 04:24:51;;;;;;;4.47;2.40;;;17.80;99.90;;;;;;5073195;28;20036;-76
2021/08/20 04:27:18;;;;;;;7.65;2.10;;;17.80;99.90;;;;;;5073230;28;20028;-75
2021/08/20 04:29:44;;;;;;;5.72;1.95;;;17.80;99.90;;;;;;5073693;28;20468;-77
2021/08/20 04:32:09;;;;;;;3.60;2.20;;;17.70;99.90;;;;;;5073129;28;20032;-77
2021/08/20 04:34:35;;;;;;;5.55;2.45;;;17.70;99.90;;;;;;5073195;28;20035;-76
2021/08/20 04:37:01;;;;;;;11.32;3.67;;;17.70;99.90;;;;;;5073115;28;20453;-75
2021/08/20 04:39:26;;;;;;;3.70;1.98;;;17.70;99.90;;;;;;5073015;28;20063;-76
2021/08/20 04:41:52;;;;;;;5.60;2.33;;;17.70;99.90;;;;;;5072477;28;20035;-76
2021/08/20 04:44:18;;;;;;;4.05;2.15;;;17.60;99.90;;;;;;5072075;28;20077;-75
2021/08/20 04:46:43;;;;;;;4.05;2.28;;;17.70;99.90;;;;;;5072784;28;20033;-77
2021/08/20 04:49:09;;;;;;;3.85;2.53;;;17.70;99.90;;;;;;5073151;28;20032;-77
2021/08/20 04:51:35;;;;;;;4.68;2.65;;;17.70;99.90;;;;;;5073049;28;20029;-76
2021/08/20 04:54:01;;;;;;;3.53;2.15;;;17.70;99.90;;;;;;5073275;28;20013;-76
2021/08/20 04:56:26;;;;;;;4.75;2.17;;;17.70;99.90;;;;;;5087820;28;20034;-75
2021/08/20 04:58:52;;;;;;;3.22;2.17;;;17.80;99.90;;;;;;5075358;28;20058;-76
2021/08/20 05:01:18;;;;;;;3.17;2.00;;;17.80;99.90;;;;;;5073978;28;20146;-80
2021/08/20 05:03:44;;;;;;;4.18;2.35;;;17.80;99.90;;;;;;5073200;28;20025;-76
2021/08/20 05:06:12;;;;;;;3.88;2.08;;;17.80;99.90;;;;;;5072874;28;20036;-76
2021/08/20 05:08:38;;;;;;;5.03;2.38;;;17.90;99.90;;;;;;5071210;28;20056;-76
2021/08/20 05:11:04;;;;;;;3.30;2.38;;;17.90;99.90;;;;;;5072735;28;20031;-77
2021/08/20 05:13:30;;;;;;;4.03;2.55;;;17.90;99.90;;;;;;5072604;28;20597;-76
2021/08/20 05:15:56;;;;;;;4.85;2.22;;;17.90;99.90;;;;;;5072643;28;20029;-77
2021/08/20 05:18:21;;;;;;;9.65;2.50;;;18.00;99.90;;;;;;5072262;28;20050;-77
2021/08/20 05:20:47;;;;;;;6.47;2.42;;;18.00;99.90;;;;;;5072341;28;20025;-76
2021/08/20 05:23:13;;;;;;;11.02;4.20;;;18.20;99.90;;;;;;5072317;28;20028;-76
2021/08/20 05:25:39;;;;;;;6.53;3.03;;;18.30;99.90;;;;;;5072096;28;20024;-77
2021/08/20 05:28:05;;;;;;;7.00;3.58;;;18.40;99.90;;;;;;5070934;28;20031;-76
2021/08/20 05:30:31;;;;;;;7.47;3.40;;;18.40;99.90;;;;;;5072178;28;20016;-76
2021/08/20 05:32:57;;;;;;;5.65;3.35;;;18.40;99.90;;;;;;5073111;28;20279;-76
2021/08/20 05:35:22;;;;;;;12.43;3.88;;;18.30;99.90;;;;;;5071029;28;20031;-77
2021/08/20 05:37:49;;;;;;;9.68;2.88;;;18.30;99.90;;;;;;5070311;28;20032;-77
2021/08/20 05:40:16;;;;;;;5.15;3.42;;;18.30;99.90;;;;;;5059385;28;20041;-76
2021/08/20 05:42:41;;;;;;;12.40;5.47;;;18.40;99.90;;;;;;5070640;28;20054;-76
2021/08/20 05:45:08;;;;;;;10.68;5.28;;;18.40;99.90;;;;;;5071757;28;20028;-77
2021/08/20 05:47:34;;;;;;;5.72;3.30;;;18.50;99.90;;;;;;5071759;28;20082;-76
2021/08/20 05:49:59;;;;;;;8.63;4.40;;;18.60;99.90;;;;;;5071754;28;20032;-76
2021/08/20 05:52:25;;;;;;;5.80;3.17;;;18.70;99.90;;;;;;5065677;28;20021;-76
2021/08/20 05:54:50;;;;;;;5.20;3.13;;;18.80;99.90;;;;;;5082037;28;20464;-76
2021/08/20 05:57:16;;;;;;;8.15;2.90;;;18.90;99.90;;;;;;5091275;28;20039;-76
2021/08/20 05:59:41;;;;;;;7.88;3.25;;;19.10;99.90;;;;;;5075878;28;20044;-76
2021/08/20 06:02:07;;;;;;;6.30;2.88;;;19.10;99.90;;;;;;5075771;28;20031;-76
2021/08/20 06:04:33;;;;;;;8.02;3.08;;;19.20;99.90;;;;;;5075870;28;20027;-76
2021/08/20 06:06:58;;;;;;;4.32;2.47;;;19.30;99.90;;;;;;5075869;28;20074;-77
2021/08/20 06:09:24;;;;;;;6.22;2.80;;;19.20;99.90;;;;;;5075983;28;20056;-75
2021/08/20 06:11:50;;;;;;;7.78;3.05;;;19.30;99.90;;;;;;5074369;28;20031;-75
2021/08/20 06:14:16;;;;;;;5.65;2.88;;;19.30;99.90;;;;;;5092234;28;20028;-76
2021/08/20 06:16:41;;;;;;;8.75;2.90;;;19.20;99.90;;;;;;5079397;28;20028;-76
2021/08/20 06:19:07;;;;;;;5.43;2.60;;;19.20;99.90;;;;;;5055498;28;20033;-75
2021/08/20 06:21:32;;;;;;;6.95;2.45;;;19.20;99.90;;;;;;5054531;28;20021;-76
2021/08/20 06:23:58;;;;;;;3.75;2.33;;;19.30;99.90;;;;;;5064791;28;20032;-76
2021/08/20 06:26:23;;;;;;;5.72;2.75;;;19.50;99.90;;;;;;5074037;28;20075;-76
2021/08/20 06:28:49;;;;;;;5.85;3.33;;;19.40;99.90;;;;;;5072502;28;20119;-77
2021/08/20 06:31:15;;;;;;;8.25;3.53;;;19.40;99.90;;;;;;5054355;28;20480;-76
2021/08/20 06:33:40;;;;;;;6.05;2.55;;;19.60;99.90;;;;;;5055136;28;20036;-75
2021/08/20 06:36:06;;;;;;;6.68;2.60;;;19.70;99.90;;;;;;5053919;28;20057;-76
2021/08/20 06:38:32;;;;;;;11.18;2.85;;;19.80;99.90;;;;;;5055117;28;20028;-76
2021/08/20 06:40:57;;;;;;;9.13;2.85;;;19.80;99.90;;;;;;5056187;28;20023;-76
2021/08/20 06:43:23;;;;;;;7.45;3.03;;;19.70;99.90;;;;;;5055461;28;20029;-77
2021/08/20 06:45:48;;;;;;;6.07;3.10;;;19.80;99.90;;;;;;5076622;28;20475;-77
2021/08/20 06:48:17;;;;;;;3.67;2.40;;;19.90;99.90;;;;;;5088430;28;20032;-80
2021/08/20 06:50:44;;;;;;;7.00;2.50;;;20.00;99.90;;;;;;5076793;28;20025;-75
2021/08/20 06:53:10;;;;;;;3.97;2.67;;;20.20;99.90;;;;;;5054887;28;20039;-77
2021/08/20 06:55:36;;;;;;;7.50;1.95;;;20.70;99.90;;;;;;5054593;28;20021;-78
2021/08/20 06:58:01;;;;;;;4.97;2.30;;;20.90;99.90;;;;;;5069280;28;20441;-75
2021/08/20 07:00:27;;;;;;;4.55;2.92;;;21.10;99.90;;;;;;5075579;28;20069;-75
2021/08/20 07:02:53;;;;;;;3.00;2.25;;;20.80;99.90;;;;;;5076184;28;20100;-76
2021/08/20 07:05:18;;;;;;;4.22;2.40;;;20.90;99.90;;;;;;5074460;28;20106;-76
2021/08/20 07:07:45;;;;;;;5.65;2.63;;;20.90;99.90;;;;;;5073334;28;20119;-76
2021/08/20 07:10:16;;;;;;;4.82;3.22;;;20.80;99.90;;;;;;5073506;28;20028;-76
2021/08/20 07:12:43;;;;;;;5.40;2.50;;;21.20;99.90;;;;;;5073190;28;20032;-75
2021/08/20 07:15:11;;;;;;;4.53;4.10;;;21.50;99.90;;;;;;5073925;28;20024;-75
2021/08/20 07:17:36;;;;;;;6.15;4.05;;;21.10;99.90;;;;;;5080015;28;20029;-77
2021/08/20 07:20:04;;;;;;;5.55;3.63;;;21.40;99.90;;;;;;5092470;28;20071;-74
2021/08/20 07:22:29;;;;;;;5.97;3.75;;;21.70;99.90;;;;;;5099311;28;20031;-75
2021/08/20 07:24:55;;;;;;;5.50;4.28;;;21.70;99.90;;;;;;5098461;28;20004;-74
2021/08/20 07:27:20;;;;;;;4.53;4.13;;;21.70;99.90;;;;;;5099153;28;20047;-74
2021/08/20 07:29:47;;;;;;;4.75;3.35;;;21.60;99.90;;;;;;5098865;28;20012;-76
2021/08/20 07:32:13;;;;;;;6.32;4.60;;;21.60;99.90;;;;;;5099089;28;20035;-75
2021/08/20 07:34:38;;;;;;;6.97;4.53;;;21.40;99.90;;;;;;5099987;28;20040;-73
2021/08/20 07:37:06;;;;;;;5.60;4.18;;;21.10;99.90;;;;;;5098324;28;20037;-74
2021/08/20 07:39:32;;;;;;;4.95;4.43;;;21.20;99.90;;;;;;5098432;28;20100;-74
2021/08/20 07:41:58;;;;;;;4.20;3.78;;;21.70;99.90;;;;;;5099873;28;20016;-74
2021/08/20 07:44:25;;;;;;;6.68;4.60;;;22.10;99.90;;;;;;5098949;28;20019;-75
2021/08/20 07:46:51;;;;;;;5.30;4.80;;;21.60;99.90;;;;;;5099013;28;20015;-75
2021/08/20 07:49:17;;;;;;;8.77;4.72;;;21.20;99.90;;;;;;5086164;28;20515;-76
2021/08/20 07:51:42;;;;;;;6.00;4.43;;;21.50;99.90;;;;;;5075583;28;20028;-76
2021/08/20 07:54:08;;;;;;;5.82;4.68;;;21.50;99.90;;;;;;5075146;28;20515;-77
2021/08/20 07:56:33;;;;;;;7.82;4.22;;;21.30;99.90;;;;;;5074354;28;20023;-76
2021/08/20 07:58:59;;;;;;;7.40;4.63;;;21.20;99.90;;;;;;5067864;28;20565;-74
2021/08/20 08:01:24;;;;;;;6.28;4.30;;;21.10;99.90;;;;;;5082870;28;20016;-76
2021/08/20 08:03:50;;;;;;;4.50;4.07;;;21.10;99.90;;;;;;5097471;28;20017;-74
2021/08/20 08:06:16;;;;;;;8.32;4.30;;;21.30;99.90;;;;;;5099100;28;20098;-74
2021/08/20 08:08:43;;;;;;;8.13;3.30;;;21.60;99.90;;;;;;5098907;28;20024;-74
2021/08/20 08:11:09;;;;;;;6.13;4.00;;;21.50;99.90;;;;;;5099299;28;20059;-74
2021/08/20 08:13:36;;;;;;;7.18;4.18;;;21.70;99.90;;;;;;5099014;28;20024;-74
2021/08/20 08:16:02;;;;;;;5.30;3.55;;;22.00;99.90;;;;;;5098284;28;20092;-74
2021/08/20 08:18:28;;;;;;;6.13;4.47;;;22.00;99.90;;;;;;5097718;28;20021;-74
2021/08/20 08:20:54;;;;;;;3.45;3.15;;;22.10;99.90;;;;;;5099196;28;20009;-75
2021/08/20 08:23:19;;;;;;;3.83;3.50;;;22.40;99.90;;;;;;5091935;28;20124;-75
2021/08/20 08:25:45;;;;;;;5.38;3.50;;;22.60;99.90;;;;;;5075527;28;20102;-76
2021/08/20 08:28:11;;;;;;;8.00;3.70;;;22.30;99.90;;;;;;5073910;28;20050;-77
2021/08/20 08:30:38;;;;;;;4.63;4.13;;;21.80;99.90;;;;;;5074859;28;20032;-75
2021/08/20 08:33:06;;;;;;;4.88;4.30;;;21.50;99.90;;;;;;5072977;28;20430;-76
2021/08/20 08:35:32;;;;;;;5.15;3.53;;;21.40;99.90;;;;;;5072435;28;20056;-76
2021/08/20 08:38:06;;;;;;;7.28;4.40;;;21.30;99.90;;;;;;5072994;28;20055;-75
2021/08/20 08:40:33;;;;;;;5.25;4.57;;;21.20;99.90;;;;;;5073729;28;20025;-76
2021/08/20 08:42:59;;;;;;;4.28;3.88;;;21.20;99.90;;;;;;5073214;28;20071;-76
2021/08/20 08:45:25;;;;;;;4.80;4.35;;;21.50;99.90;;;;;;5071892;28;20082;-76
2021/08/20 08:47:55;;;;;;;6.32;4.68;;;21.90;99.90;;;;;;5073114;28;20442;-75
2021/08/20 08:50:22;;;;;;;4.30;3.90;;;22.10;99.90;;;;;;5073044;28;20024;-75
2021/08/20 08:52:48;;;;;;;4.07;3.60;;;22.30;99.90;;;;;;5073340;28;20073;-75
2021/08/20 08:55:14;;;;;;;4.05;3.55;;;23.00;99.90;;;;;;5071344;28;20107;-76
2021/08/20 08:57:39;;;;;;;4.95;4.50;;;23.50;99.90;;;;;;5071371;28;20488;-74
2021/08/20 09:00:06;;;;;;;4.30;3.90;;;22.70;99.90;;;;;;5061045;28;20488;-75
2021/08/20 09:02:35;;;;;;;6.20;3.80;;;22.30;99.90;;;;;;5052606;28;20032;-77
2021/08/20 09:05:05;;;;;;;5.72;4.32;;;22.10;99.90;;;;;;5052937;28;20059;-76
2021/08/20 09:07:34;;;;;;;5.47;4.43;;;21.80;99.90;;;;;;5051499;28;20024;-77
2021/08/20 09:10:13;;;;;;;6.57;4.40;;;21.60;99.90;;;;;;5052540;28;20421;-75
2021/08/20 09:12:52;;;;;;;5.28;4.78;;;21.40;99.90;;;;;;5052398;28;20020;-74
2021/08/20 09:15:20;;;;;;;5.32;4.55;;;21.30;99.90;;;;;;5052527;28;20071;-74
2021/08/20 09:17:50;;;;;;;8.30;5.43;;;21.30;99.90;;;;;;5052553;28;20019;-75
2021/08/20 09:20:22;;;;;;;5.03;4.57;;;21.30;99.90;;;;;;5052515;28;20103;-76
2021/08/20 09:22:48;;;;;;;5.53;4.85;;;21.30;99.90;;;;;;5051134;28;20511;-76
2021/08/20 09:25:33;;;;;;;4.97;4.47;;;21.30;99.90;;;;;;5052997;28;20536;-77
2021/08/20 09:28:25;;;;;;;5.50;5.00;;;21.60;99.90;;;;;;5052673;28;20063;-76
2021/08/20 09:30:53;;;;;;;4.05;3.65;;;21.60;99.90;;;;;;5051339;28;20075;-76
2021/08/20 09:33:21;;;;;;;4.75;4.28;;;21.50;99.90;;;;;;5050819;28;20017;-75
2021/08/20 09:36:04;;;;;;;6.03;4.40;;;21.60;99.90;;;;;;5052500;28;20017;-76
2021/08/20 09:38:32;;;;;;;4.68;4.18;;;21.60;99.90;;;;;;5050978;28;20033;-75
2021/08/20 09:41:01;;;;;;;5.03;3.92;;;21.90;99.90;;;;;;5052500;28;20074;-77
2021/08/20 09:43:36;;;;;;;3.92;3.55;;;21.90;99.90;;;;;;5052439;28;20435;-76
2021/08/20 09:46:10;;;;;;;4.25;3.92;;;22.00;99.90;;;;;;5073137;28;20461;-75
2021/08/20 09:48:56;;;;;;;4.30;3.90;;;22.20;99.90;;;;;;5071121;28;20024;-76
2021/08/20 09:51:30;;;;;;;7.13;4.05;;;22.30;99.90;;;;;;5071947;28;20021;-76
2021/08/20 09:54:07;;;;;;;6.13;3.60;;;22.70;99.90;;;;;;5070863;28;20074;-78
2021/08/20 09:56:34;;;;;;;3.90;3.60;;;23.20;99.90;;;;;;5072030;28;20024;-76
2021/08/20 09:59:01;;;;;;;5.10;3.55;;;23.10;99.90;;;;;;5068358;28;20086;-76
2021/08/20 10:01:28;;;;;;;3.90;3.60;;;23.50;99.90;;;;;;5052067;28;20029;-75
2021/08/20 10:03:57;;;;;;;3.90;3.60;;;24.00;99.90;;;;;;5050717;28;20025;-77
2021/08/20 10:06:27;;;;;;;5.22;4.15;;;23.80;99.90;;;;;;5051986;28;20366;-75
2021/08/20 10:08:54;;;;;;;4.20;3.33;;;24.20;99.90;;;;;;5052388;28;20025;-76
2021/08/20 10:11:21;;;;;;;5.10;4.15;;;24.20;99.90;;;;;;5050633;28;20271;-76
2021/08/20 10:13:47;;;;;;;3.67;3.33;;;23.90;99.90;;;;;;5051809;28;20083;-77
2021/08/20 10:16:13;;;;;;;4.47;2.92;;;23.20;99.90;;;;;;5051809;28;20017;-76
2021/08/20 10:18:41;;;;;;;3.90;3.58;;;23.10;99.90;;;;;;5051543;28;20021;-77
2021/08/20 10:21:08;;;;;;;6.20;3.67;;;22.40;99.90;;;;;;5050985;28;20508;-76
2021/08/20 10:23:35;;;;;;;6.32;5.05;;;22.10;99.90;;;;;;5050505;28;20178;-76
2021/08/20 10:26:01;;;;;;;3.85;3.45;;;21.90;99.90;;;;;;5050229;28;20063;-76
2021/08/20 10:28:27;;;;;;;5.15;3.53;;;22.00;99.90;;;;;;5050188;28;20064;-77
2021/08/20 10:30:53;;;;;;;4.10;2.85;;;21.90;99.90;;;;;;5051952;28;20021;-76
2021/08/20 10:33:37;;;;;;;4.30;2.45;;;21.90;99.90;;;;;;5051889;28;20028;-79
2021/08/20 10:36:04;;;;;;;3.95;3.03;;;21.90;99.90;;;;;;5050303;28;20052;-78
2021/08/20 10:38:55;;;;;;;3.10;2.85;;;21.90;99.90;;;;;;5051458;28;20558;-76
2021/08/20 10:41:22;;;;;;;3.70;2.83;;;22.10;99.90;;;;;;5047842;28;20036;-76
2021/08/20 10:44:01;;;;;;;2.85;2.65;;;22.20;99.90;;;;;;5055736;28;20029;-76
2021/08/20 10:46:33;;;;;;;7.07;3.25;;;22.80;99.90;;;;;;5055429;28;20554;-76
2021/08/20 10:49:22;;;;;;;5.25;2.67;;;23.10;99.90;;;;;;5055413;28;20163;-76
2021/08/20 10:51:57;;;;;;;3.30;2.63;;;23.50;99.90;;;;;;5055537;28;20017;-75
2021/08/20 10:54:31;;;;;;;3.08;2.38;;;23.80;99.90;;;;;;5055851;28;20029;-75
2021/08/20 10:57:04;;;;;;;4.22;2.75;;;23.80;99.90;;;;;;5054911;28;20104;-76
2021/08/20 10:59:46;;;;;;;3.25;2.90;;;24.00;99.90;;;;;;5054936;28;20025;-77
2021/08/20 11:02:24;;;;;;;2.75;2.40;;;24.30;99.90;;;;;;5055274;28;20066;-77
2021/08/20 11:05:02;;;;;;;2.95;2.65;;;24.50;99.90;;;;;;5055127;28;20040;-76
2021/08/20 11:07:36;;;;;;;3.72;2.60;;;24.60;99.90;;;;;;5055372;28;20532;-75
2021/08/20 11:10:24;;;;;;;2.50;2.30;;;24.30;99.90;;;;;;5053661;28;20017;-76
2021/08/20 11:12:53;;;;;;;2.55;2.38;;;23.80;99.90;;;;;;5045078;28;20033;-76
2021/08/20 11:15:21;;;;;;;2.60;2.38;;;23.40;99.90;;;;;;5054803;28;20025;-76
2021/08/20 11:18:04;;;;;;;2.83;2.63;;;23.20;99.90;;;;;;5054955;28;20103;-76
2021/08/20 11:20:45;;;;;;;2.67;2.47;;;23.30;99.90;;;;;;5053583;28;20025;-76
2021/08/20 11:23:11;;;;;;;2.60;2.40;;;23.50;99.90;;;;;;5055095;28;20551;-76
2021/08/20 11:25:38;;;;;;;4.05;2.55;;;23.40;99.90;;;;;;5053764;28;20484;-76
2021/08/20 11:28:33;;;;;;;2.95;2.67;;;23.90;99.90;;;;;;5054654;28;20024;-75
2021/08/20 11:31:09;;;;;;;2.90;2.17;;;24.40;99.90;;;;;;5053233;28;20065;-76
2021/08/20 11:33:45;;;;;;;3.55;2.08;;;25.00;99.90;;;;;;5053221;28;20040;-77
2021/08/20 11:36:16;;;;;;;2.25;1.90;;;25.40;99.70;;;;;;5054620;28;20067;-76
2021/08/20 11:38:45;;;;;;;2.85;2.60;;;25.30;99.40;;;;;;5054683;28;20029;-76
2021/08/20 11:41:45;;;;;;;6.43;2.40;;;25.00;99.00;;;;;;5053233;28;20028;-76
2021/08/20 11:44:15;;;;;;;2.38;2.17;;;24.80;99.70;;;;;;5053000;28;20051;-77
2021/08/20 11:46:44;;;;;;;4.70;2.08;;;24.50;99.20;;;;;;5075118;28;20051;-77
2021/08/20 11:49:11;;;;;;;3.70;2.60;;;24.30;99.30;;;;;;5073939;28;20059;-76
2021/08/20 11:51:39;;;;;;;3.30;2.50;;;24.20;99.80;;;;;;5073039;28;20108;-75
2021/08/20 11:54:11;;;;;;;2.45;2.25;;;24.10;99.90;;;;;;5072617;28;20460;-76
2021/08/20 11:56:48;;;;;;;2.63;2.40;;;24.20;99.90;;;;;;5073624;28;20028;-76
2021/08/20 11:59:14;;;;;;;2.42;2.22;;;24.00;99.90;;;;;;5068226;28;20029;-77
2021/08/20 12:01:40;;;;;;;3.17;2.40;;;23.60;99.90;;;;;;5053732;28;20546;-76
2021/08/20 12:04:07;;;;;;;3.35;2.08;;;23.70;99.90;;;;;;5052811;28;20291;-76
2021/08/20 12:06:34;;;;;;;3.72;2.08;;;24.00;99.90;;;;;;5052437;28;20481;-75
2021/08/20 12:09:08;;;;;;;3.47;2.47;;;24.50;99.90;;;;;;5054255;28;20032;-76
2021/08/20 12:11:34;;;;;;;4.70;2.65;;;24.70;99.20;;;;;;5053843;28;20389;-76
2021/08/20 12:13:59;;;;;;;2.38;2.17;;;24.70;99.30;;;;;;5054569;28;20028;-77
2021/08/20 12:16:36;;;;;;;2.42;2.20;;;24.60;99.30;;;;;;5054150;28;20062;-76
2021/08/20 12:19:24;;;;;;;2.40;2.20;;;24.70;99.00;;;;;;5052670;28;20025;-76
2021/08/20 12:21:52;;;;;;;2.40;2.20;;;24.90;99.00;;;;;;5053947;28;20025;-76
2021/08/20 12:24:35;;;;;;;3.33;2.58;;;25.00;98.50;;;;;;5053171;28;20032;-76
2021/08/20 12:27:13;;;;;;;2.33;2.13;;;25.10;97.80;;;;;;5051814;28;20036;-76
2021/08/20 12:29:39;;;;;;;10.38;7.18;;;25.40;98.60;;;;;;5053251;28;20096;-76
2021/08/20 12:32:05;;;;;;;5.32;3.60;;;25.50;98.30;;;;;;5053098;28;20102;-77
2021/08/20 12:34:33;;;;;;;3.17;2.67;;;25.70;98.40;;;;;;5052124;28;20021;-76
2021/08/20 12:37:01;;;;;;;1.75;1.65;;;25.90;97.90;;;;;;5052995;28;20048;-77
2021/08/20 12:39:38;;;;;;;3.00;2.00;;;26.00;97.60;;;;;;5052962;28;20078;-77
2021/08/20 12:42:20;;;;;;;3.45;2.08;;;25.50;97.50;;;;;;5052149;28;20025;-76
2021/08/20 12:44:47;;;;;;;2.25;2.05;;;25.60;97.00;;;;;;5052886;28;20040;-76
2021/08/20 12:47:13;;;;;;;3.60;2.47;;;25.60;97.50;;;;;;5051850;28;20024;-75
2021/08/20 12:50:00;;;;;;;4.90;2.40;;;25.40;97.60;;;;;;5051780;28;20025;-76